»·PEaware :: WAT528 KLAS-KSFO

WAT528 :: KLAS-KSFO

FLIGHT INFORMATION

Flight Status: Arrived
Operator:
Walker Air Transport
More flights by this operator :: More flights under this callsign
Pilot: Aleksandar D. (29171)
Aircraft: BOEING 737-800
(B738)
More flights by this aircraft type
Origin: KLAS McCarran Intl
United States
Destination: KSFO San Francisco Intl
United States
More flights between these airports :: More routes between these airports
Route: SHEAD1 KENNO RUSME DYAMD5
File this flight plan on PilotEdge
Remarks:
Altitude:
(Current/Filed)
32,000ft
Speed:
(Current/Filed)
462kts
Departed: 22-Feb-21 05:14 PM
Arrived: 22-Feb-21 06:18 PM
Distance/Time
Traveled:
360nm/1:03
Distance/Time
To Go:
Arrived

Flight Plot

Page will automatically refresh every two minutes.

Flight plan parsing failed; only flown route is shown


Map Options




Map Legend


Flown Route
Filed Route
Departure Airport
Arrival Airport
Navaid (VOR, NDB)
Fix

Horizontal Profiles

Position Reports

Time Latitude Longitude Heading Altitude Ground
Speed
22-Feb-21 16:35 36.082885 -115.153651 109 2190ft 0kts
22-Feb-21 16:36 36.082885 -115.153651 109 2190ft 0kts
22-Feb-21 16:37 36.082885 -115.153651 109 2190ft 0kts
22-Feb-21 16:38 36.082885 -115.153651 109 2190ft 0kts
22-Feb-21 16:39 36.082885 -115.153651 109 2190ft 0kts
22-Feb-21 16:40 36.082885 -115.153651 109 2190ft 0kts
22-Feb-21 16:40 36.082885 -115.153651 109 2190ft 0kts
22-Feb-21 16:42 36.082885 -115.153651 109 2190ft 0kts
22-Feb-21 16:43 36.082885 -115.153651 109 2190ft 0kts
22-Feb-21 16:44 36.082885 -115.153651 109 2190ft 0kts
22-Feb-21 16:44 36.082885 -115.153651 109 2190ft 0kts
22-Feb-21 16:46 36.082885 -115.153651 109 2190ft 0kts
22-Feb-21 16:46 36.082885 -115.153651 109 2190ft 0kts
22-Feb-21 16:47 36.082885 -115.153651 109 2190ft 0kts
22-Feb-21 16:49 36.082885 -115.153651 109 2190ft 0kts
22-Feb-21 16:49 36.082885 -115.153651 109 2190ft 0kts
22-Feb-21 16:50 36.082885 -115.153651 109 2190ft 0kts
22-Feb-21 16:51 36.082885 -115.153651 109 2190ft 0kts
22-Feb-21 16:52 36.082885 -115.153651 109 2190ft 0kts
22-Feb-21 16:53 36.082885 -115.153651 109 2190ft 0kts
22-Feb-21 16:54 36.082885 -115.153651 109 2190ft 0kts
22-Feb-21 16:55 36.082885 -115.153651 109 2190ft 0kts
22-Feb-21 16:56 36.082885 -115.153651 109 2190ft 0kts
22-Feb-21 16:57 36.082885 -115.153651 109 2190ft 0kts
22-Feb-21 16:58 36.083068 -115.154199 118 2190ft 2kts
22-Feb-21 16:59 36.083418 -115.154798 133 2190ft 2kts
22-Feb-21 17:00 36.083884 -115.155263 149 2190ft 2kts
22-Feb-21 17:01 36.084132 -115.155423 156 2190ft 0kts
22-Feb-21 17:02 36.084132 -115.155423 156 2190ft 0kts
22-Feb-21 17:03 36.084132 -115.155423 156 2190ft 0kts
22-Feb-21 17:04 36.084132 -115.155423 156 2190ft 0kts
22-Feb-21 17:05 36.084917 -115.155910 314 2190ft 3kts
22-Feb-21 17:06 36.085452 -115.157209 337 2190ft 8kts
22-Feb-21 17:07 36.088966 -115.156700 25 2190ft 14kts
22-Feb-21 17:08 36.092253 -115.154945 25 2190ft 11kts
22-Feb-21 17:09 36.094782 -115.153506 24 2190ft 10kts
22-Feb-21 17:10 36.097857 -115.152210 317 2190ft 0kts
22-Feb-21 17:11 36.097857 -115.152211 318 2190ft 0kts
22-Feb-21 17:12 36.098325 -115.153586 246 2190ft 14kts
22-Feb-21 17:13 36.071492 -115.168857 205 2801ft 184kts
22-Feb-21 17:14 36.017136 -115.206691 224 4821ft 263kts
22-Feb-21 17:15 35.973835 -115.293877 236 6966ft 286kts
22-Feb-21 17:16 35.916065 -115.368516 224 8975ft 300kts
22-Feb-21 17:17 35.886195 -115.463297 270 10734ft 325kts
22-Feb-21 17:18 35.889084 -115.579849 272 10982ft 338kts
22-Feb-21 17:19 35.891340 -115.696195 271 12035ft 343kts
22-Feb-21 17:20 35.893382 -115.816904 271 14763ft 361kts
22-Feb-21 17:21 35.899197 -115.942118 286 17226ft 376kts
22-Feb-21 17:22 35.961373 -116.046204 317 19248ft 393kts
22-Feb-21 17:23 36.040259 -116.137156 318 20253ft 392kts
22-Feb-21 17:24 36.121265 -116.230512 318 22277ft 404kts
22-Feb-21 17:25 36.204470 -116.326683 318 24085ft 417kts
22-Feb-21 17:26 36.289998 -116.425830 317 25760ft 427kts
22-Feb-21 17:27 36.377533 -116.527616 317 27274ft 438kts
22-Feb-21 17:28 36.467054 -116.632204 317 28665ft 447kts
22-Feb-21 17:29 36.560485 -116.736106 324 29912ft 456kts
22-Feb-21 17:30 36.667165 -116.823827 328 31110ft 463kts
22-Feb-21 17:31 36.775978 -116.908137 328 32257ft 464kts
22-Feb-21 17:32 36.884807 -116.991562 328 32261ft 457kts
22-Feb-21 17:33 36.993034 -117.074461 328 32263ft 457kts
22-Feb-21 17:34 37.100500 -117.156951 328 32265ft 455kts
22-Feb-21 17:35 37.208890 -117.240399 328 32282ft 455kts
22-Feb-21 17:36 37.313349 -117.329066 320 32303ft 455kts
22-Feb-21 17:37 37.410423 -117.430922 319 32301ft 454kts
22-Feb-21 17:38 37.489514 -117.551011 290 32303ft 452kts
22-Feb-21 17:39 37.509392 -117.706076 275 32300ft 450kts
22-Feb-21 17:40 37.522451 -117.862710 275 32301ft 449kts
22-Feb-21 17:41 37.535169 -118.019057 275 32289ft 449kts
22-Feb-21 17:42 37.547649 -118.175453 275 32283ft 449kts
22-Feb-21 17:43 37.559972 -118.332610 275 32283ft 450kts
22-Feb-21 17:44 37.572076 -118.489719 275 32283ft 450kts
22-Feb-21 17:45 37.583991 -118.647143 275 32283ft 451kts
22-Feb-21 17:46 37.595712 -118.804776 274 32283ft 451kts
22-Feb-21 17:47 37.606740 -118.955823 274 32288ft 451kts
22-Feb-21 17:48 37.618039 -119.113470 274 32292ft 451kts
22-Feb-21 17:49 37.629143 -119.271477 274 32292ft 449kts
22-Feb-21 17:50 37.639453 -119.422283 274 32293ft 407kts
22-Feb-21 17:51 37.648766 -119.566553 274 32283ft 415kts
22-Feb-21 17:52 37.657930 -119.710760 273 31307ft 404kts
22-Feb-21 17:53 37.666691 -119.852361 273 30300ft 402kts
22-Feb-21 17:54 37.675175 -119.992366 273 29293ft 396kts
22-Feb-21 17:55 37.683338 -120.129806 273 28292ft 391kts
22-Feb-21 17:56 37.691285 -120.266348 273 27293ft 386kts
22-Feb-21 17:57 37.695450 -120.401192 264 26938ft 390kts
22-Feb-21 17:58 37.683235 -120.532956 262 25659ft 367kts
22-Feb-21 17:59 37.667287 -120.676368 261 23713ft 443kts
22-Feb-21 18:00 37.650346 -120.820396 261 21700ft 395kts
22-Feb-21 18:01 37.634079 -120.955060 261 19820ft 378kts
22-Feb-21 18:02 37.616994 -121.083598 260 18003ft 364kts
22-Feb-21 18:03 37.600279 -121.208074 260 16014ft 356kts
22-Feb-21 18:04 37.585087 -121.328671 262 14290ft 342kts
22-Feb-21 18:05 37.571779 -121.445371 262 12621ft 329kts
22-Feb-21 18:06 37.558753 -121.557766 263 11004ft 318kts
22-Feb-21 18:07 37.541611 -121.664203 254 9797ft 289kts
22-Feb-21 18:08 37.518249 -121.761278 254 8330ft 279kts
22-Feb-21 18:09 37.496901 -121.850211 254 7356ft 263kts
22-Feb-21 18:10 37.494409 -121.940607 275 6260ft 257kts
22-Feb-21 18:11 37.499799 -122.030669 275 5055ft 257kts
22-Feb-21 18:12 37.508421 -122.119539 301 3844ft 253kts
22-Feb-21 18:13 37.545147 -122.194263 299 2846ft 243kts
22-Feb-21 18:14 37.575380 -122.266526 298 1648ft 212kts
22-Feb-21 18:15 37.597866 -122.319804 296 733ft 137kts
22-Feb-21 18:16 37.615531 -122.361842 297 41ft 132kts
22-Feb-21 18:17 37.622082 -122.378937 277 22ft 14kts
22-Feb-21 18:18 37.622293 -122.381428 273 22ft 12kts
22-Feb-21 18:19 37.620814 -122.384785 298 22ft 10kts
22-Feb-21 18:20 37.622122 -122.387895 297 22ft 11kts
22-Feb-21 18:21 37.621970 -122.390691 171 22ft 2kts
22-Feb-21 18:22 37.621556 -122.390510 162 22ft 0kts
22-Feb-21 18:23 37.621555 -122.390510 162 22ft 0kts
22-Feb-21 18:24 37.621555 -122.390510 162 22ft 0kts
22-Feb-21 18:25 37.621555 -122.390510 162 22ft 0kts
22-Feb-21 18:26 37.621555 -122.390510 162 22ft 0kts

Navigation Log

Ident Type
Flight plan parsing failed, navigation log unavailable